sensor_id;sensor_type;location;lat;lon;timestamp;pressure;altitude;pressure_sealevel;temperature;humidity
23339;BME280;11841;49.368;20.962;2022-08-25T00:01:43;96077.84;;;19.08;100.00
23339;BME280;11841;49.368;20.962;2022-08-25T00:04:13;96077.03;;;19.08;100.00
23339;BME280;11841;49.368;20.962;2022-08-25T00:06:41;96075.44;;;19.07;100.00
23339;BME280;11841;49.368;20.962;2022-08-25T00:09:09;96068.69;;;19.04;100.00
23339;BME280;11841;49.368;20.962;2022-08-25T00:11:37;96068.38;;;19.01;100.00
23339;BME280;11841;49.368;20.962;2022-08-25T00:14:11;96073.50;;;19.02;100.00
23339;BME280;11841;49.368;20.962;2022-08-25T00:16:39;96073.50;;;19.02;100.00
23339;BME280;11841;49.368;20.962;2022-08-25T00:19:12;96074.03;;;18.99;100.00
23339;BME280;11841;49.368;20.962;2022-08-25T00:21:41;96067.53;;;18.95;100.00
23339;BME280;11841;49.368;20.962;2022-08-25T00:24:10;96063.78;;;18.91;100.00
23339;BME280;11841;49.368;20.962;2022-08-25T00:26:42;96072.09;;;18.90;100.00
23339;BME280;11841;49.368;20.962;2022-08-25T00:29:09;96063.44;;;18.78;100.00
23339;BME280;11841;49.368;20.962;2022-08-25T00:31:37;96063.44;;;18.78;100.00
23339;BME280;11841;49.368;20.962;2022-08-25T00:34:11;96059.41;;;18.80;100.00
23339;BME280;11841;49.368;20.962;2022-08-25T00:36:38;96057.25;;;18.82;100.00
23339;BME280;11841;49.368;20.962;2022-08-25T00:39:07;96057.81;;;18.84;100.00
23339;BME280;11841;49.368;20.962;2022-08-25T00:41:34;96057.78;;;18.79;100.00
23339;BME280;11841;49.368;20.962;2022-08-25T00:44:05;96050.53;;;18.75;100.00
23339;BME280;11841;49.368;20.962;2022-08-25T00:46:36;96048.84;;;18.69;100.00
23339;BME280;11841;49.368;20.962;2022-08-25T00:49:11;96042.41;;;18.65;100.00
23339;BME280;11841;49.368;20.962;2022-08-25T00:51:54;96044.78;;;18.61;100.00
23339;BME280;11841;49.368;20.962;2022-08-25T00:54:28;96043.69;;;18.57;100.00
23339;BME280;11841;49.368;20.962;2022-08-25T00:56:57;96039.63;;;18.55;100.00
23339;BME280;11841;49.368;20.962;2022-08-25T00:59:24;96036.16;;;18.54;100.00
23339;BME280;11841;49.368;20.962;2022-08-25T01:01:52;96034.78;;;18.52;100.00
23339;BME280;11841;49.368;20.962;2022-08-25T01:04:20;96036.66;;;18.51;100.00
23339;BME280;11841;49.368;20.962;2022-08-25T01:06:47;96037.97;;;18.49;100.00
23339;BME280;11841;49.368;20.962;2022-08-25T01:09:15;96042.50;;;18.43;100.00
23339;BME280;11841;49.368;20.962;2022-08-25T01:11:43;96045.13;;;18.38;100.00
23339;BME280;11841;49.368;20.962;2022-08-25T01:14:14;96035.97;;;18.34;100.00
23339;BME280;11841;49.368;20.962;2022-08-25T01:16:41;96040.25;;;18.35;100.00
23339;BME280;11841;49.368;20.962;2022-08-25T01:19:16;96038.66;;;18.34;100.00
23339;BME280;11841;49.368;20.962;2022-08-25T01:21:48;96041.34;;;18.34;100.00
23339;BME280;11841;49.368;20.962;2022-08-25T01:24:37;96045.03;;;18.28;100.00
23339;BME280;11841;49.368;20.962;2022-08-25T01:27:05;96030.75;;;18.23;100.00
23339;BME280;11841;49.368;20.962;2022-08-25T01:29:32;96040.41;;;18.19;100.00
23339;BME280;11841;49.368;20.962;2022-08-25T01:32:02;96041.97;;;18.15;100.00
23339;BME280;11841;49.368;20.962;2022-08-25T01:34:33;96041.16;;;18.14;100.00
23339;BME280;11841;49.368;20.962;2022-08-25T01:37:01;96040.09;;;18.15;100.00
23339;BME280;11841;49.368;20.962;2022-08-25T01:39:30;96045.78;;;18.19;100.00
23339;BME280;11841;49.368;20.962;2022-08-25T01:44:30;96038.47;;;18.14;100.00
23339;BME280;11841;49.368;20.962;2022-08-25T01:46:57;96039.00;;;18.11;100.00
23339;BME280;11841;49.368;20.962;2022-08-25T01:49:23;96041.13;;;18.09;100.00
23339;BME280;11841;49.368;20.962;2022-08-25T01:51:56;96039.25;;;18.09;100.00
23339;BME280;11841;49.368;20.962;2022-08-25T01:54:25;96040.31;;;18.08;100.00
23339;BME280;11841;49.368;20.962;2022-08-25T01:56:52;96038.16;;;18.10;100.00
23339;BME280;11841;49.368;20.962;2022-08-25T01:59:19;96035.56;;;18.16;100.00
23339;BME280;11841;49.368;20.962;2022-08-25T02:01:49;96032.63;;;18.17;100.00
23339;BME280;11841;49.368;20.962;2022-08-25T02:04:28;96029.13;;;18.17;100.00
23339;BME280;11841;49.368;20.962;2022-08-25T02:06:59;96028.84;;;18.18;100.00
23339;BME280;11841;49.368;20.962;2022-08-25T02:09:26;96035.84;;;18.19;100.00
23339;BME280;11841;49.368;20.962;2022-08-25T02:11:53;96031.59;;;18.23;100.00
23339;BME280;11841;49.368;20.962;2022-08-25T02:14:20;96037.25;;;18.27;100.00
23339;BME280;11841;49.368;20.962;2022-08-25T02:16:49;96032.69;;;18.27;100.00
23339;BME280;11841;49.368;20.962;2022-08-25T02:19:17;96037.25;;;18.27;100.00
23339;BME280;11841;49.368;20.962;2022-08-25T02:21:44;96037.50;;;18.25;100.00
23339;BME280;11841;49.368;20.962;2022-08-25T02:24:11;96032.66;;;18.22;100.00
23339;BME280;11841;49.368;20.962;2022-08-25T02:26:39;96034.25;;;18.23;100.00
23339;BME280;11841;49.368;20.962;2022-08-25T02:29:07;96034.81;;;18.25;100.00
23339;BME280;11841;49.368;20.962;2022-08-25T02:31:34;96030.00;;;18.27;100.00
23339;BME280;11841;49.368;20.962;2022-08-25T02:34:01;96026.81;;;18.30;100.00
23339;BME280;11841;49.368;20.962;2022-08-25T02:36:28;96022.53;;;18.29;100.00
23339;BME280;11841;49.368;20.962;2022-08-25T02:38:55;96023.56;;;18.28;100.00
23339;BME280;11841;49.368;20.962;2022-08-25T02:41:23;96028.94;;;18.28;100.00
23339;BME280;11841;49.368;20.962;2022-08-25T02:43:57;96031.09;;;18.31;100.00
23339;BME280;11841;49.368;20.962;2022-08-25T02:46:24;96028.41;;;18.31;100.00
23339;BME280;11841;49.368;20.962;2022-08-25T02:48:50;96028.41;;;18.31;100.00
23339;BME280;11841;49.368;20.962;2022-08-25T02:51:25;96025.72;;;18.31;100.00
23339;BME280;11841;49.368;20.962;2022-08-25T02:53:53;96031.09;;;18.31;100.00
23339;BME280;11841;49.368;20.962;2022-08-25T02:56:20;96033.28;;;18.34;100.00
23339;BME280;11841;49.368;20.962;2022-08-25T02:58:46;96030.59;;;18.34;100.00
23339;BME280;11841;49.368;20.962;2022-08-25T03:01:14;96029.00;;;18.38;100.00
23339;BME280;11841;49.368;20.962;2022-08-25T03:03:42;96033.88;;;18.41;100.00
23339;BME280;11841;49.368;20.962;2022-08-25T03:06:12;96025.34;;;18.44;100.00
23339;BME280;11841;49.368;20.962;2022-08-25T03:08:40;96028.81;;;18.45;100.00
23339;BME280;11841;49.368;20.962;2022-08-25T03:11:07;96035.25;;;18.44;100.00
23339;BME280;11841;49.368;20.962;2022-08-25T03:13:34;96030.72;;;18.44;100.00
23339;BME280;11841;49.368;20.962;2022-08-25T03:16:03;96031.25;;;18.46;100.00
23339;BME280;11841;49.368;20.962;2022-08-25T03:18:30;96028.56;;;18.46;100.00
23339;BME280;11841;49.368;20.962;2022-08-25T03:20:57;96028.81;;;18.45;100.00
23339;BME280;11841;49.368;20.962;2022-08-25T03:23:24;96029.63;;;18.45;100.00
23339;BME280;11841;49.368;20.962;2022-08-25T03:25:53;96035.56;;;18.47;100.00
23339;BME280;11841;49.368;20.962;2022-08-25T03:28:39;96031.78;;;18.48;100.00
23339;BME280;11841;49.368;20.962;2022-08-25T03:31:08;96039.06;;;18.48;100.00
23339;BME280;11841;49.368;20.962;2022-08-25T03:33:35;96031.78;;;18.48;100.00
23339;BME280;11841;49.368;20.962;2022-08-25T03:36:02;96038.25;;;18.47;100.00
23339;BME280;11841;49.368;20.962;2022-08-25T03:38:28;96038.75;;;18.44;100.00
23339;BME280;11841;49.368;20.962;2022-08-25T03:40:55;96037.44;;;18.47;100.00
23339;BME280;11841;49.368;20.962;2022-08-25T03:43:22;96039.34;;;18.51;100.00
23339;BME280;11841;49.368;20.962;2022-08-25T03:45:50;96031.81;;;18.53;100.00
23339;BME280;11841;49.368;20.962;2022-08-25T03:48:17;96030.50;;;18.56;100.00
23339;BME280;11841;49.368;20.962;2022-08-25T03:50:49;96029.19;;;18.58;100.00
23339;BME280;11841;49.368;20.962;2022-08-25T03:53:18;96029.72;;;18.60;100.00
23339;BME280;11841;49.368;20.962;2022-08-25T03:55:46;96027.34;;;18.64;100.00
23339;BME280;11841;49.368;20.962;2022-08-25T03:58:13;96027.91;;;18.66;100.00
23339;BME280;11841;49.368;20.962;2022-08-25T04:00:40;96021.72;;;18.65;100.00
23339;BME280;11841;49.368;20.962;2022-08-25T04:03:07;96026.53;;;18.63;100.00
23339;BME280;11841;49.368;20.962;2022-08-25T04:05:34;96026.53;;;18.63;100.00
23339;BME280;11841;49.368;20.962;2022-08-25T04:08:01;96024.91;;;18.62;100.00
23339;BME280;11841;49.368;20.962;2022-08-25T04:10:28;96015.78;;;18.63;100.00
23339;BME280;11841;49.368;20.962;2022-08-25T04:12:56;96024.41;;;18.65;100.00
23339;BME280;11841;49.368;20.962;2022-08-25T04:15:22;96005.34;;;18.67;100.00
23339;BME280;11841;49.368;20.962;2022-08-25T04:17:56;96005.88;;;18.69;100.00
23339;BME280;11841;49.368;20.962;2022-08-25T04:20:24;96007.25;;;18.71;100.00
23339;BME280;11841;49.368;20.962;2022-08-25T04:22:51;96008.88;;;18.72;100.00
23339;BME280;11841;49.368;20.962;2022-08-25T04:25:17;96007.25;;;18.71;100.00
23339;BME280;11841;49.368;20.962;2022-08-25T04:27:44;96004.84;;;18.70;100.00
23339;BME280;11841;49.368;20.962;2022-08-25T04:30:11;96000.78;;;18.67;100.00
23339;BME280;11841;49.368;20.962;2022-08-25T04:32:38;96005.06;;;18.68;100.00
23339;BME280;11841;49.368;20.962;2022-08-25T04:35:05;96005.63;;;18.70;100.00
23339;BME280;11841;49.368;20.962;2022-08-25T04:37:31;96002.94;;;18.70;100.00
23339;BME280;11841;49.368;20.962;2022-08-25T04:39:59;96006.19;;;18.72;100.00
23339;BME280;11841;49.368;20.962;2022-08-25T04:42:26;95995.97;;;18.74;100.00
23339;BME280;11841;49.368;20.962;2022-08-25T04:44:52;95995.16;;;18.74;100.00
23339;BME280;11841;49.368;20.962;2022-08-25T04:47:20;95996.22;;;18.68;100.00
23339;BME280;11841;49.368;20.962;2022-08-25T04:49:46;95997.81;;;18.64;100.00
23339;BME280;11841;49.368;20.962;2022-08-25T04:52:13;95998.88;;;18.63;100.00
23339;BME280;11841;49.368;20.962;2022-08-25T04:54:41;95993.81;;;18.66;100.00
23339;BME280;11841;49.368;20.962;2022-08-25T04:57:07;96000.25;;;18.70;100.00
23339;BME280;11841;49.368;20.962;2022-08-25T04:59:34;95998.66;;;18.69;100.00
23339;BME280;11841;49.368;20.962;2022-08-25T05:02:02;95995.97;;;18.69;100.00
23339;BME280;11841;49.368;20.962;2022-08-25T05:04:30;95996.22;;;18.68;100.00
23339;BME280;11841;49.368;20.962;2022-08-25T05:06:58;95999.75;;;18.73;100.00
23339;BME280;11841;49.368;20.962;2022-08-25T05:09:25;95999.22;;;18.76;100.00
23339;BME280;11841;49.368;20.962;2022-08-25T05:11:53;95998.13;;;18.72;100.00
23339;BME280;11841;49.368;20.962;2022-08-25T05:14:21;95997.53;;;18.65;100.00
23339;BME280;11841;49.368;20.962;2022-08-25T05:16:52;96001.81;;;18.61;100.00
23339;BME280;11841;49.368;20.962;2022-08-25T05:19:19;95989.47;;;18.65;100.00
23339;BME280;11841;49.368;20.962;2022-08-25T05:21:45;95997.00;;;18.68;100.00
23339;BME280;11841;49.368;20.962;2022-08-25T05:24:12;96001.34;;;18.69;100.00
23339;BME280;11841;49.368;20.962;2022-08-25T05:26:39;96001.88;;;18.71;100.00
23339;BME280;11841;49.368;20.962;2022-08-25T05:29:05;96002.69;;;18.77;100.00
23339;BME280;11841;49.368;20.962;2022-08-25T05:31:32;96003.53;;;18.82;100.00
23339;BME280;11841;49.368;20.962;2022-08-25T05:34:06;96003.84;;;18.86;100.00
23339;BME280;11841;49.368;20.962;2022-08-25T05:36:33;95994.44;;;18.83;100.00
23339;BME280;11841;49.368;20.962;2022-08-25T05:39:00;95994.66;;;18.82;100.00
23339;BME280;11841;49.368;20.962;2022-08-25T05:41:29;96003.00;;;18.80;100.00
23339;BME280;11841;49.368;20.962;2022-08-25T05:43:56;96000.59;;;18.84;100.00
23339;BME280;11841;49.368;20.962;2022-08-25T05:46:23;96002.25;;;18.90;100.00
23339;BME280;11841;49.368;20.962;2022-08-25T05:48:50;96003.59;;;18.92;100.00
23339;BME280;11841;49.368;20.962;2022-08-25T05:51:17;95996.38;;;18.98;100.00
23339;BME280;11841;49.368;20.962;2022-08-25T05:53:47;96006.88;;;19.04;100.00
23339;BME280;11841;49.368;20.962;2022-08-25T05:56:14;95998.00;;;19.09;100.00
23339;BME280;11841;49.368;20.962;2022-08-25T05:58:42;95993.19;;;19.11;100.00
23339;BME280;11841;49.368;20.962;2022-08-25T06:01:17;96002.34;;;19.15;100.00
23339;BME280;11841;49.368;20.962;2022-08-25T06:04:02;96006.91;;;19.14;100.00
23339;BME280;11841;49.368;20.962;2022-08-25T06:06:28;96007.97;;;19.08;100.00
23339;BME280;11841;49.368;20.962;2022-08-25T06:08:55;96005.53;;;19.02;100.00
23339;BME280;11841;49.368;20.962;2022-08-25T06:11:22;95999.88;;;18.98;100.00
23339;BME280;11841;49.368;20.962;2022-08-25T06:13:49;96005.75;;;18.95;100.00
23339;BME280;11841;49.368;20.962;2022-08-25T06:16:15;96011.94;;;18.96;100.00
23339;BME280;11841;49.368;20.962;2022-08-25T06:18:42;96000.38;;;18.95;100.00
23339;BME280;11841;49.368;20.962;2022-08-25T06:21:12;96009.50;;;18.94;100.00
23339;BME280;11841;49.368;20.962;2022-08-25T06:23:40;96010.88;;;18.97;100.00
23339;BME280;11841;49.368;20.962;2022-08-25T06:26:10;96005.81;;;19.00;100.00
23339;BME280;11841;49.368;20.962;2022-08-25T06:28:46;95997.97;;;18.99;100.00
23339;BME280;11841;49.368;20.962;2022-08-25T06:31:12;96002.03;;;19.01;100.00
23339;BME280;11841;49.368;20.962;2022-08-25T06:33:39;96008.50;;;19.00;100.00
23339;BME280;11841;49.368;20.962;2022-08-25T06:36:06;96004.16;;;18.99;100.00
23339;BME280;11841;49.368;20.962;2022-08-25T06:38:34;96008.50;;;19.00;100.00
23339;BME280;11841;49.368;20.962;2022-08-25T06:41:05;96013.31;;;18.98;100.00
23339;BME280;11841;49.368;20.962;2022-08-25T06:43:33;96009.25;;;18.96;100.00
23339;BME280;11841;49.368;20.962;2022-08-25T06:46:14;96009.53;;;18.99;100.00
23339;BME280;11841;49.368;20.962;2022-08-25T06:48:41;96004.97;;;19.00;100.00
23339;BME280;11841;49.368;20.962;2022-08-25T06:51:10;96006.88;;;19.04;100.00
23339;BME280;11841;49.368;20.962;2022-08-25T06:53:40;96006.38;;;19.12;100.00
23339;BME280;11841;49.368;20.962;2022-08-25T06:56:08;96006.66;;;19.21;100.00
23339;BME280;11841;49.368;20.962;2022-08-25T06:58:35;96009.91;;;19.28;100.00
23339;BME280;11841;49.368;20.962;2022-08-25T07:01:17;96007.00;;;19.35;100.00
23339;BME280;11841;49.368;20.962;2022-08-25T07:03:46;96003.00;;;19.42;100.00
23339;BME280;11841;49.368;20.962;2022-08-25T07:06:14;95999.03;;;19.50;100.00
23339;BME280;11841;49.368;20.962;2022-08-25T07:08:44;96009.53;;;19.56;100.00
23339;BME280;11841;49.368;20.962;2022-08-25T07:11:11;95999.56;;;19.62;100.00
23339;BME280;11841;49.368;20.962;2022-08-25T07:13:42;96011.41;;;19.71;100.00
23339;BME280;11841;49.368;20.962;2022-08-25T07:16:09;96007.69;;;19.72;100.00
23339;BME280;11841;49.368;20.962;2022-08-25T07:18:36;96006.03;;;19.71;100.00
23339;BME280;11841;49.368;20.962;2022-08-25T07:21:04;96002.78;;;19.64;100.00
23339;BME280;11841;49.368;20.962;2022-08-25T07:23:34;95996.88;;;19.67;100.00
23339;BME280;11841;49.368;20.962;2022-08-25T07:26:16;96001.75;;;19.75;100.00
23339;BME280;11841;49.368;20.962;2022-08-25T07:29:10;96002.31;;;19.87;100.00
23339;BME280;11841;49.368;20.962;2022-08-25T07:31:38;95999.63;;;19.87;100.00
23339;BME280;11841;49.368;20.962;2022-08-25T07:34:06;95998.00;;;19.91;100.00
23339;BME280;11841;49.368;20.962;2022-08-25T07:36:52;96002.03;;;19.93;100.00
23339;BME280;11841;49.368;20.962;2022-08-25T07:39:19;96005.53;;;19.94;100.00
23339;BME280;11841;49.368;20.962;2022-08-25T07:41:47;95997.72;;;19.97;100.00
23339;BME280;11841;49.368;20.962;2022-08-25T07:44:18;96003.66;;;19.99;100.00
23339;BME280;11841;49.368;20.962;2022-08-25T07:46:45;95999.09;;;20.00;100.00
23339;BME280;11841;49.368;20.962;2022-08-25T07:49:12;96000.97;;;20.04;100.00
23339;BME280;11841;49.368;20.962;2022-08-25T07:51:43;96000.69;;;20.11;100.00
23339;BME280;11841;49.368;20.962;2022-08-25T07:54:29;95999.66;;;20.17;100.00
23339;BME280;11841;49.368;20.962;2022-08-25T07:57:01;95996.97;;;20.27;100.00
23339;BME280;11841;49.368;20.962;2022-08-25T07:59:28;95993.19;;;20.33;100.00
23339;BME280;11841;49.368;20.962;2022-08-25T08:01:55;95978.91;;;20.37;100.00
23339;BME280;11841;49.368;20.962;2022-08-25T08:04:22;95990.22;;;20.45;100.00
23339;BME280;11841;49.368;20.962;2022-08-25T08:06:49;95987.25;;;20.56;100.00
23339;BME280;11841;49.368;20.962;2022-08-25T08:09:15;95988.81;;;20.67;100.00
23339;BME280;11841;49.368;20.962;2022-08-25T08:11:42;95975.59;;;20.76;100.00
23339;BME280;11841;49.368;20.962;2022-08-25T08:14:19;95983.94;;;20.79;100.00
23339;BME280;11841;49.368;20.962;2022-08-25T08:16:45;95974.78;;;20.85;100.00
23339;BME280;11841;49.368;20.962;2022-08-25T08:19:12;95976.91;;;20.98;100.00
23339;BME280;11841;49.368;20.962;2022-08-25T08:21:39;95972.03;;;21.10;100.00
23339;BME280;11841;49.368;20.962;2022-08-25T08:24:06;95982.50;;;21.17;100.00
23339;BME280;11841;49.368;20.962;2022-08-25T08:26:53;95975.16;;;21.32;100.00
23339;BME280;11841;49.368;20.962;2022-08-25T08:29:24;95974.81;;;21.44;100.00
23339;BME280;11841;49.368;20.962;2022-08-25T08:31:51;95977.19;;;21.50;100.00
23339;BME280;11841;49.368;20.962;2022-08-25T08:34:18;95975.53;;;21.59;100.00
23339;BME280;11841;49.368;20.962;2022-08-25T08:36:50;95976.53;;;21.74;100.00
23339;BME280;11841;49.368;20.962;2022-08-25T08:39:16;95969.72;;;21.86;100.00
23339;BME280;11841;49.368;20.962;2022-08-25T08:44:48;95963.34;;;22.11;100.00
23339;BME280;11841;49.368;20.962;2022-08-25T08:50:09;95966.16;;;22.29;100.00
23339;BME280;11841;49.368;20.962;2022-08-25T08:58:02;95951.97;;;22.71;100.00
23339;BME280;11841;49.368;20.962;2022-08-25T09:00:32;95962.72;;;22.76;100.00
23339;BME280;11841;49.368;20.962;2022-08-25T09:03:06;95960.19;;;22.85;100.00
23339;BME280;11841;49.368;20.962;2022-08-25T09:05:42;95953.06;;;22.94;100.00
23339;BME280;11841;49.368;20.962;2022-08-25T09:08:13;95963.41;;;23.10;100.00
23339;BME280;11841;49.368;20.962;2022-08-25T09:28:17;95935.91;;;23.82;97.70
23339;BME280;11841;49.368;20.962;2022-08-25T09:31:07;95930.28;;;23.98;97.90
23339;BME280;11841;49.368;20.962;2022-08-25T09:33:38;95932.34;;;24.06;99.33
23339;BME280;11841;49.368;20.962;2022-08-25T09:36:06;95939.78;;;24.14;98.40
23339;BME280;11841;49.368;20.962;2022-08-25T09:38:34;95931.41;;;24.29;95.54
23339;BME280;11841;49.368;20.962;2022-08-25T09:41:01;95935.56;;;24.40;95.13
23339;BME280;11841;49.368;20.962;2022-08-25T09:43:52;95934.88;;;24.61;92.45
23339;BME280;11841;49.368;20.962;2022-08-25T09:46:27;95925.84;;;24.66;92.16
23339;BME280;11841;49.368;20.962;2022-08-25T09:48:56;95937.34;;;24.76;90.81
23339;BME280;11841;49.368;20.962;2022-08-25T09:51:32;95933.66;;;24.86;86.88
23339;BME280;11841;49.368;20.962;2022-08-25T09:59:25;95923.34;;;25.24;80.07
23339;BME280;11841;49.368;20.962;2022-08-25T10:04:46;95918.44;;;25.39;78.88
23339;BME280;11841;49.368;20.962;2022-08-25T10:07:25;95922.06;;;25.48;76.12
23339;BME280;11841;49.368;20.962;2022-08-25T10:09:58;95917.59;;;25.52;77.36
23339;BME280;11841;49.368;20.962;2022-08-25T10:12:37;95925.03;;;25.60;78.64
23339;BME280;11841;49.368;20.962;2022-08-25T10:15:37;95915.22;;;25.73;72.51
23339;BME280;11841;49.368;20.962;2022-08-25T10:18:24;95912.16;;;25.88;70.58
23339;BME280;11841;49.368;20.962;2022-08-25T10:21:08;95906.13;;;25.91;68.77
23339;BME280;11841;49.368;20.962;2022-08-25T10:23:50;95904.69;;;25.93;68.83
23339;BME280;11841;49.368;20.962;2022-08-25T10:29:27;95893.84;;;26.15;66.03
23339;BME280;11841;49.368;20.962;2022-08-25T10:34:52;95897.56;;;26.19;66.51
23339;BME280;11841;49.368;20.962;2022-08-25T10:37:26;95896.16;;;26.31;67.73
23339;BME280;11841;49.368;20.962;2022-08-25T10:45:54;95892.78;;;26.56;65.02
23339;BME280;11841;49.368;20.962;2022-08-25T10:58:58;95887.44;;;26.73;62.89
23339;BME280;11841;49.368;20.962;2022-08-25T11:04:21;95886.38;;;26.82;64.02
23339;BME280;11841;49.368;20.962;2022-08-25T11:07:02;95884.34;;;26.88;63.17
23339;BME280;11841;49.368;20.962;2022-08-25T11:09:36;95877.59;;;26.85;65.43
23339;BME280;11841;49.368;20.962;2022-08-25T11:12:24;95879.53;;;26.93;67.08
23339;BME280;11841;49.368;20.962;2022-08-25T11:14:55;95877.16;;;27.00;64.97
23339;BME280;11841;49.368;20.962;2022-08-25T11:17:26;95875.41;;;27.04;66.45
23339;BME280;11841;49.368;20.962;2022-08-25T11:20:06;95875.44;;;27.13;65.39
23339;BME280;11841;49.368;20.962;2022-08-25T11:22:42;95869.50;;;27.19;63.56
23339;BME280;11841;49.368;20.962;2022-08-25T11:25:16;95866.13;;;27.14;63.54
23339;BME280;11841;49.368;20.962;2022-08-25T11:30:41;95861.16;;;27.07;65.65
23339;BME280;11841;49.368;20.962;2022-08-25T11:33:13;95860.69;;;27.14;64.24
23339;BME280;11841;49.368;20.962;2022-08-25T11:36:01;95860.22;;;27.20;60.81
23339;BME280;11841;49.368;20.962;2022-08-25T11:39:10;95850.47;;;27.28;61.71
23339;BME280;11841;49.368;20.962;2022-08-25T11:53:21;95829.84;;;27.70;58.85
23339;BME280;11841;49.368;20.962;2022-08-25T11:58:55;95821.81;;;27.82;57.76
23339;BME280;11841;49.368;20.962;2022-08-25T12:04:40;95831.91;;;27.98;55.98
23339;BME280;11841;49.368;20.962;2022-08-25T12:12:37;95823.09;;;28.10;53.96
23339;BME280;11841;49.368;20.962;2022-08-25T12:29:10;95812.16;;;28.27;53.15
23339;BME280;11841;49.368;20.962;2022-08-25T12:32:00;95821.59;;;28.21;53.07
23339;BME280;11841;49.368;20.962;2022-08-25T12:37:23;95817.09;;;28.33;55.31
23339;BME280;11841;49.368;20.962;2022-08-25T12:40:04;95813.22;;;28.34;55.12
23339;BME280;11841;49.368;20.962;2022-08-25T12:42:38;95806.63;;;28.44;56.05
23339;BME280;11841;49.368;20.962;2022-08-25T12:47:53;95813.13;;;28.69;57.32
23339;BME280;11841;49.368;20.962;2022-08-25T12:50:55;95811.78;;;28.75;58.86
23339;BME280;11841;49.368;20.962;2022-08-25T12:53:47;95811.44;;;28.85;58.01
23339;BME280;11841;49.368;20.962;2022-08-25T12:56:31;95802.53;;;28.96;58.31
23339;BME280;11841;49.368;20.962;2022-08-25T12:59:15;95802.69;;;29.00;58.69
23339;BME280;11841;49.368;20.962;2022-08-25T13:16:25;95787.69;;;29.06;56.78
23339;BME280;11841;49.368;20.962;2022-08-25T13:18:57;95790.06;;;29.16;56.95
23339;BME280;11841;49.368;20.962;2022-08-25T13:21:34;95801.16;;;29.11;54.41
23339;BME280;11841;49.368;20.962;2022-08-25T13:24:06;95791.91;;;29.03;54.53
23339;BME280;11841;49.368;20.962;2022-08-25T13:26:39;95781.38;;;28.93;54.62
23339;BME280;11841;49.368;20.962;2022-08-25T13:29:18;95786.22;;;28.88;55.34
23339;BME280;11841;49.368;20.962;2022-08-25T13:31:58;95785.59;;;28.82;55.03
23339;BME280;11841;49.368;20.962;2022-08-25T13:34:31;95783.66;;;28.83;56.22
23339;BME280;11841;49.368;20.962;2022-08-25T13:37:09;95785.44;;;28.79;56.13
23339;BME280;11841;49.368;20.962;2022-08-25T13:42:46;95788.00;;;28.84;56.79
23339;BME280;11841;49.368;20.962;2022-08-25T13:45:24;95787.06;;;28.80;56.07
23339;BME280;11841;49.368;20.962;2022-08-25T13:47:52;95782.38;;;28.80;56.87
23339;BME280;11841;49.368;20.962;2022-08-25T13:50:41;95787.31;;;28.87;57.49
23339;BME280;11841;49.368;20.962;2022-08-25T13:53:22;95790.53;;;28.89;57.72
23339;BME280;11841;49.368;20.962;2022-08-25T13:56:00;95777.75;;;28.81;57.63
23339;BME280;11841;49.368;20.962;2022-08-25T13:58:34;95773.22;;;28.85;58.41
23339;BME280;11841;49.368;20.962;2022-08-25T14:01:17;95776.03;;;28.97;58.02
23339;BME280;11841;49.368;20.962;2022-08-25T14:04:43;95768.56;;;29.06;58.71
23339;BME280;11841;49.368;20.962;2022-08-25T14:12:35;95771.13;;;28.82;57.40
23339;BME280;11841;49.368;20.962;2022-08-25T14:15:10;95777.06;;;28.84;59.28
23339;BME280;11841;49.368;20.962;2022-08-25T14:17:40;95765.63;;;28.90;59.23
23339;BME280;11841;49.368;20.962;2022-08-25T14:20:20;95773.03;;;28.90;58.93
23339;BME280;11841;49.368;20.962;2022-08-25T14:23:04;95770.94;;;28.87;60.36
23339;BME280;11841;49.368;20.962;2022-08-25T14:25:35;95765.34;;;28.83;59.22
23339;BME280;11841;49.368;20.962;2022-08-25T14:28:13;95765.50;;;28.87;60.22
23339;BME280;11841;49.368;20.962;2022-08-25T14:30:46;95761.94;;;28.95;60.35
23339;BME280;11841;49.368;20.962;2022-08-25T14:33:18;95752.72;;;28.99;60.06
23339;BME280;11841;49.368;20.962;2022-08-25T14:35:48;95763.78;;;29.03;60.67
23339;BME280;11841;49.368;20.962;2022-08-25T14:38:16;95757.03;;;29.09;60.82
23339;BME280;11841;49.368;20.962;2022-08-25T14:40:46;95760.56;;;29.09;59.68
23339;BME280;11841;49.368;20.962;2022-08-25T14:43:13;95765.38;;;29.04;59.98
23339;BME280;11841;49.368;20.962;2022-08-25T14:45:43;95754.06;;;28.93;59.84
23339;BME280;11841;49.368;20.962;2022-08-25T14:48:22;95760.97;;;28.91;59.28
23339;BME280;11841;49.368;20.962;2022-08-25T14:50:53;95756.97;;;28.88;60.20
23339;BME280;11841;49.368;20.962;2022-08-25T14:53:20;95759.25;;;28.86;60.30
23339;BME280;11841;49.368;20.962;2022-08-25T14:55:47;95757.06;;;28.80;60.64
23339;BME280;11841;49.368;20.962;2022-08-25T14:58:16;95761.38;;;28.81;60.44
23339;BME280;11841;49.368;20.962;2022-08-25T15:00:51;95756.91;;;28.76;60.29
23339;BME280;11841;49.368;20.962;2022-08-25T15:03:37;95751.13;;;28.78;60.46
23339;BME280;11841;49.368;20.962;2022-08-25T15:06:07;95752.44;;;28.72;60.50
23339;BME280;11841;49.368;20.962;2022-08-25T15:08:36;95748.31;;;28.66;60.15
23339;BME280;11841;49.368;20.962;2022-08-25T15:11:22;95756.00;;;28.64;60.46
23339;BME280;11841;49.368;20.962;2022-08-25T15:13:48;95755.53;;;28.62;60.77
23339;BME280;11841;49.368;20.962;2022-08-25T15:16:25;95754.44;;;28.63;60.98
23339;BME280;11841;49.368;20.962;2022-08-25T15:19:01;95761.66;;;28.59;61.24